Time;durP1;ratioP1;P1;durP2;ratioP2;P2;SDS_P1;SDS_P2;PMS_P1;PMS_P2;Temp;Humidity;BMP_temperature;BMP_pressure;BME280_temperature;BME280_humidity;BME280_pressure;Samples;Min_cycle;Max_cycle;Signal;HPM_P1;HPM_P2
2023/08/24 00:00:26;;;;;;;17.00;11.75;;;20.60;99.90;;;;;;5050966;28;20037;-60
2023/08/24 00:02:53;;;;;;;13.48;11.40;;;20.50;99.90;;;;;;5049441;28;20127;-61
2023/08/24 00:05:20;;;;;;;14.18;11.45;;;20.50;99.90;;;;;;5052415;28;20041;-61
2023/08/24 00:07:48;;;;;;;20.40;11.90;;;20.50;99.90;;;;;;5052020;28;20067;-61
2023/08/24 00:10:15;;;;;;;13.80;11.57;;;20.50;99.90;;;;;;5051240;28;20502;-61
2023/08/24 00:12:43;;;;;;;17.50;11.88;;;20.60;99.90;;;;;;5052984;28;20064;-61
2023/08/24 00:15:10;;;;;;;12.10;10.85;;;20.60;99.90;;;;;;5052499;28;20048;-61
2023/08/24 00:17:37;;;;;;;14.00;10.55;;;20.70;99.90;;;;;;5053593;28;20554;-61
2023/08/24 00:20:10;;;;;;;16.70;11.93;;;20.70;99.90;;;;;;5070327;28;20493;-60
2023/08/24 00:22:39;;;;;;;18.02;10.65;;;20.80;99.90;;;;;;5064008;28;20053;-61
2023/08/24 00:25:07;;;;;;;14.70;10.73;;;20.80;99.90;;;;;;5046235;28;20034;-60
2023/08/24 00:27:35;;;;;;;16.00;10.90;;;20.80;99.90;;;;;;5040357;28;20040;-60
2023/08/24 00:30:07;;;;;;;18.33;11.35;;;20.80;99.90;;;;;;5033271;28;20048;-61
2023/08/24 00:32:34;;;;;;;18.02;12.00;;;20.80;99.90;;;;;;5052538;28;20039;-61
2023/08/24 00:35:06;;;;;;;15.82;10.73;;;20.80;99.90;;;;;;5052064;28;20056;-61
2023/08/24 00:37:33;;;;;;;16.42;11.10;;;20.80;99.90;;;;;;5060210;28;20115;-61
2023/08/24 00:40:04;;;;;;;14.63;11.18;;;20.80;99.90;;;;;;5053774;28;20064;-61
2023/08/24 00:42:32;;;;;;;15.25;10.90;;;20.70;99.90;;;;;;5047403;28;20037;-61
2023/08/24 00:44:59;;;;;;;14.25;11.13;;;20.70;99.90;;;;;;5036079;28;20060;-61
2023/08/24 00:47:25;;;;;;;14.60;11.02;;;20.70;99.90;;;;;;5029956;28;20440;-60
2023/08/24 00:49:53;;;;;;;14.32;11.43;;;20.70;99.90;;;;;;5053958;28;20571;-60
2023/08/24 00:52:19;;;;;;;;;;;20.70;99.90;;;;;;5072531;28;20040;-61
2023/08/24 00:54:47;;;;;;;18.38;11.73;;;20.60;99.90;;;;;;5057001;28;19926;-61
2023/08/24 00:57:14;;;;;;;15.23;10.95;;;20.50;99.90;;;;;;5059569;28;20043;-61
2023/08/24 00:59:40;;;;;;;18.05;12.43;;;20.50;99.90;;;;;;5044835;28;20062;-61
2023/08/24 01:02:07;;;;;;;15.80;12.98;;;20.50;99.90;;;;;;5053809;28;20062;-61
2023/08/24 01:04:34;;;;;;;18.08;12.48;;;20.50;99.90;;;;;;5053762;28;20133;-60
2023/08/24 01:07:02;;;;;;;20.45;13.50;;;20.50;99.90;;;;;;5062157;28;20542;-61
2023/08/24 01:09:29;;;;;;;20.77;13.52;;;20.60;99.90;;;;;;5059657;28;20120;-61
2023/08/24 01:12:26;;;;;;;18.13;14.43;;;20.60;99.90;;;;;;5033576;28;20128;-60
2023/08/24 01:15:04;;;;;;;19.58;14.50;;;20.60;99.90;;;;;;5030556;28;20045;-61
2023/08/24 01:17:32;;;;;;;13.63;11.70;;;20.60;99.90;;;;;;5042044;28;20041;-60
2023/08/24 01:19:59;;;;;;;15.85;11.93;;;20.60;99.90;;;;;;5070770;28;20409;-61
2023/08/24 01:22:34;;;;;;;;;;;20.50;99.90;;;;;;5055225;28;20040;-61
2023/08/24 01:25:32;;;;;;;15.73;12.77;;;20.40;99.90;;;;;;5049296;28;20280;-61
2023/08/24 01:28:00;;;;;;;14.80;12.90;;;20.40;99.90;;;;;;5054783;28;20049;-61
2023/08/24 01:30:27;;;;;;;20.15;13.05;;;20.40;99.90;;;;;;5041672;28;20524;-61
2023/08/24 01:32:54;;;;;;;17.33;12.05;;;20.40;99.90;;;;;;5040107;28;20051;-60
2023/08/24 01:35:21;;;;;;;17.50;12.63;;;20.30;99.90;;;;;;5051706;28;20124;-60
2023/08/24 01:37:47;;;;;;;17.23;12.05;;;20.30;99.90;;;;;;5047119;28;20509;-60
2023/08/24 01:40:22;;;;;;;18.17;12.73;;;20.30;99.90;;;;;;5028797;28;20083;-61
2023/08/24 01:42:55;;;;;;;16.90;12.35;;;20.20;99.90;;;;;;5055625;28;20522;-61
2023/08/24 01:45:27;;;;;;;20.30;14.25;;;20.30;99.90;;;;;;5039099;28;20047;-61
2023/08/24 01:47:55;;;;;;;23.30;16.38;;;20.20;99.90;;;;;;5061020;28;20040;-61
2023/08/24 01:50:23;;;;;;;22.65;15.82;;;20.30;99.90;;;;;;5049421;28;20115;-61
2023/08/24 01:52:50;;;;;;;19.63;15.77;;;20.30;99.90;;;;;;5050991;28;20048;-60
2023/08/24 01:55:19;;;;;;;22.55;15.45;;;20.40;99.90;;;;;;5043358;28;20128;-61
2023/08/24 01:57:46;;;;;;;18.77;13.65;;;20.40;99.90;;;;;;5043157;28;20053;-61
2023/08/24 02:00:13;;;;;;;14.85;12.60;;;20.40;99.90;;;;;;5053024;28;20053;-60
2023/08/24 02:02:44;;;;;;;18.98;13.70;;;20.30;99.90;;;;;;5065658;28;20045;-60
2023/08/24 02:05:11;;;;;;;19.15;14.15;;;20.20;99.90;;;;;;5064949;28;20052;-61
2023/08/24 02:07:39;;;;;;;22.50;14.52;;;20.10;99.90;;;;;;5058056;28;20044;-61
2023/08/24 02:10:07;;;;;;;20.00;15.43;;;19.90;99.90;;;;;;5042170;28;20040;-61
2023/08/24 02:12:34;;;;;;;22.55;16.58;;;20.00;99.90;;;;;;5032677;28;20041;-60
2023/08/24 02:15:02;;;;;;;22.13;17.20;;;20.00;99.90;;;;;;5049003;28;20040;-59
2023/08/24 02:17:29;;;;;;;26.70;17.13;;;20.00;99.90;;;;;;5046306;28;20046;-60
2023/08/24 02:19:56;;;;;;;22.58;16.52;;;20.10;99.90;;;;;;5048919;28;20589;-61
2023/08/24 02:22:22;;;;;;;22.20;15.50;;;20.10;99.90;;;;;;5057664;28;20034;-60
2023/08/24 02:24:49;;;;;;;20.70;15.75;;;20.10;99.90;;;;;;5075134;28;20074;-61
2023/08/24 02:27:16;;;;;;;28.55;16.85;;;20.20;99.90;;;;;;5045631;28;20139;-61
2023/08/24 02:29:43;;;;;;;25.58;15.52;;;20.20;99.90;;;;;;5040264;28;20057;-61
2023/08/24 02:32:10;;;;;;;25.48;16.52;;;20.20;99.90;;;;;;5056129;28;20051;-60
2023/08/24 02:34:38;;;;;;;20.25;14.82;;;20.20;99.90;;;;;;5036579;28;20049;-61
2023/08/24 02:37:07;;;;;;;20.08;15.68;;;20.20;99.90;;;;;;5051556;28;20060;-60
2023/08/24 02:39:34;;;;;;;23.48;15.73;;;20.20;99.90;;;;;;5045921;28;20037;-61
2023/08/24 02:42:02;;;;;;;19.67;15.90;;;20.20;99.90;;;;;;5052140;28;20041;-60
2023/08/24 02:44:29;;;;;;;21.02;16.00;;;20.20;99.90;;;;;;5044928;28;20044;-61
2023/08/24 02:46:56;;;;;;;20.65;16.63;;;20.20;99.90;;;;;;5068947;28;20131;-60
2023/08/24 02:49:24;;;;;;;19.33;14.88;;;20.20;99.90;;;;;;5057170;28;20083;-61
2023/08/24 02:51:50;;;;;;;23.50;15.38;;;20.20;99.90;;;;;;5066147;28;20040;-61
2023/08/24 02:54:17;;;;;;;24.73;15.40;;;20.20;99.90;;;;;;5041939;28;20486;-60
2023/08/24 02:56:44;;;;;;;22.17;14.40;;;20.20;99.90;;;;;;5048917;28;20050;-60
2023/08/24 02:59:11;;;;;;;;;;;20.20;99.90;;;;;;5065553;28;20442;-61
2023/08/24 03:01:41;;;;;;;27.75;15.63;;;20.20;99.90;;;;;;5065760;28;19928;-60
2023/08/24 03:04:08;;;;;;;18.63;14.50;;;20.10;99.90;;;;;;5042156;28;20045;-61
2023/08/24 03:06:35;;;;;;;20.88;14.90;;;20.20;99.90;;;;;;5065083;28;20055;-61
2023/08/24 03:09:05;;;;;;;17.83;14.88;;;20.20;99.90;;;;;;5045900;28;20575;-62
2023/08/24 03:11:32;;;;;;;19.88;14.40;;;20.10;99.90;;;;;;5057535;28;20049;-61
2023/08/24 03:13:58;;;;;;;22.75;15.18;;;20.20;99.90;;;;;;5055548;28;20044;-61
2023/08/24 03:16:26;;;;;;;21.85;15.15;;;20.20;99.90;;;;;;5037372;28;20076;-60
2023/08/24 03:18:53;;;;;;;20.30;14.73;;;20.20;99.90;;;;;;5053558;28;20051;-59
2023/08/24 03:21:20;;;;;;;22.00;15.43;;;20.20;99.90;;;;;;5037977;28;20045;-61
2023/08/24 03:23:47;;;;;;;19.40;14.43;;;20.20;99.90;;;;;;5058414;28;20432;-61
2023/08/24 03:26:15;;;;;;;23.80;14.85;;;20.10;99.90;;;;;;5045478;28;20062;-61
2023/08/24 03:28:43;;;;;;;19.00;14.50;;;20.10;99.90;;;;;;5055747;28;20459;-61
2023/08/24 03:31:09;;;;;;;18.40;14.18;;;20.10;99.90;;;;;;5069906;28;20047;-61
2023/08/24 03:33:36;;;;;;;19.50;14.68;;;20.10;99.90;;;;;;5049239;28;20041;-62
2023/08/24 03:36:03;;;;;;;18.35;14.43;;;20.10;99.90;;;;;;5036600;28;20087;-60
2023/08/24 03:38:30;;;;;;;23.38;15.35;;;20.10;99.90;;;;;;5067672;28;20041;-61
2023/08/24 03:41:03;;;;;;;20.52;14.75;;;20.00;99.90;;;;;;5067012;28;20040;-60
2023/08/24 03:43:35;;;;;;;20.23;13.40;;;20.00;99.90;;;;;;5063113;28;20070;-60
2023/08/24 03:46:03;;;;;;;21.05;14.45;;;20.00;99.90;;;;;;5056030;28;20052;-61
2023/08/24 03:48:31;;;;;;;18.88;13.90;;;19.90;99.90;;;;;;5027531;28;20076;-61
2023/08/24 03:50:58;;;;;;;22.40;15.10;;;19.90;99.90;;;;;;5040936;28;20045;-61
2023/08/24 03:53:25;;;;;;;;;;;19.90;99.90;;;;;;5050633;28;20041;-61
2023/08/24 03:55:52;;;;;;;22.23;14.73;;;19.90;99.90;;;;;;5049777;28;19920;-61
2023/08/24 03:58:20;;;;;;;21.13;15.40;;;19.80;99.90;;;;;;5036521;28;20498;-61
2023/08/24 04:00:47;;;;;;;25.20;15.50;;;19.80;99.90;;;;;;5033307;28;20037;-60
2023/08/24 04:03:14;;;;;;;;;;;19.80;99.90;;;;;;5042073;28;20144;-61
2023/08/24 04:05:41;;;;;;;21.77;14.85;;;19.80;99.90;;;;;;5042534;28;20365;-61
2023/08/24 04:08:09;;;;;;;20.85;14.93;;;19.80;99.90;;;;;;5044008;28;20037;-61
2023/08/24 04:10:37;;;;;;;23.65;14.77;;;19.80;99.90;;;;;;5034751;28;20512;-60
2023/08/24 04:13:04;;;;;;;22.75;15.48;;;19.70;99.90;;;;;;5052697;28;20048;-61
2023/08/24 04:15:31;;;;;;;19.52;14.77;;;19.70;99.90;;;;;;5052466;28;20108;-61
2023/08/24 04:17:58;;;;;;;23.00;15.80;;;19.70;99.90;;;;;;5035320;28;20048;-61
2023/08/24 04:20:24;;;;;;;22.73;15.85;;;19.70;99.90;;;;;;5034403;28;20119;-60
2023/08/24 04:22:51;;;;;;;19.00;15.88;;;19.70;99.90;;;;;;5058359;28;20045;-60
2023/08/24 04:25:18;;;;;;;21.30;15.07;;;19.70;99.90;;;;;;5045036;28;20041;-61
2023/08/24 04:27:45;;;;;;;21.30;16.02;;;19.70;99.90;;;;;;5045777;28;20425;-61
2023/08/24 04:30:12;;;;;;;26.92;16.75;;;19.70;99.90;;;;;;5044014;28;20037;-59
2023/08/24 04:32:39;;;;;;;20.83;15.43;;;19.70;99.90;;;;;;5062321;28;20053;-61
2023/08/24 04:35:06;;;;;;;24.08;16.40;;;19.70;99.90;;;;;;5041366;28;20047;-60
2023/08/24 04:37:33;;;;;;;24.73;15.80;;;19.60;99.90;;;;;;5049921;28;20041;-60
2023/08/24 04:40:00;;;;;;;24.90;15.90;;;19.60;99.90;;;;;;5063778;28;20404;-61
2023/08/24 04:42:26;;;;;;;22.77;15.73;;;19.60;99.90;;;;;;5055252;28;20048;-60
2023/08/24 04:44:53;;;;;;;19.30;15.80;;;19.60;99.90;;;;;;5064870;28;20104;-61
2023/08/24 04:47:20;;;;;;;24.33;15.77;;;19.70;99.90;;;;;;5051475;28;20032;-60
2023/08/24 04:49:47;;;;;;;16.95;14.57;;;19.70;99.90;;;;;;5055924;28;20041;-60
2023/08/24 04:52:14;;;;;;;20.33;15.52;;;19.70;99.90;;;;;;5052318;28;20037;-60
2023/08/24 04:54:40;;;;;;;18.67;15.55;;;19.80;99.90;;;;;;5058122;28;20067;-60
2023/08/24 04:57:08;;;;;;;20.67;15.73;;;19.80;99.90;;;;;;5062595;28;20044;-60
2023/08/24 04:59:35;;;;;;;18.63;15.52;;;19.80;99.90;;;;;;5061207;28;20044;-61
2023/08/24 05:02:02;;;;;;;21.17;15.32;;;19.70;99.90;;;;;;5067550;28;20033;-60
2023/08/24 05:04:29;;;;;;;24.00;16.25;;;19.70;99.90;;;;;;5059972;28;20044;-61
2023/08/24 05:06:55;;;;;;;21.10;15.32;;;19.70;99.90;;;;;;5062371;28;20117;-61
2023/08/24 05:09:22;;;;;;;20.67;13.40;;;19.70;99.90;;;;;;5060260;28;20037;-61
2023/08/24 05:11:49;;;;;;;21.30;16.30;;;19.80;99.90;;;;;;5071783;28;20119;-60
2023/08/24 05:14:16;;;;;;;23.83;15.60;;;19.90;99.90;;;;;;5071491;28;20047;-61
2023/08/24 05:16:43;;;;;;;21.88;16.35;;;19.90;99.90;;;;;;5067938;28;20041;-60
2023/08/24 05:19:09;;;;;;;21.45;15.15;;;19.90;99.90;;;;;;5061095;28;20355;-61
2023/08/24 05:21:36;;;;;;;19.92;16.00;;;19.90;99.90;;;;;;5059359;28;20035;-61
2023/08/24 05:24:04;;;;;;;23.38;15.70;;;20.00;99.90;;;;;;5045895;28;20044;-61
2023/08/24 05:26:31;;;;;;;21.02;14.95;;;20.00;99.90;;;;;;5051776;28;20120;-60
2023/08/24 05:28:58;;;;;;;;;;;19.90;99.90;;;;;;5034489;28;20041;-61
2023/08/24 05:31:24;;;;;;;19.48;14.90;;;20.00;99.90;;;;;;5053949;28;20200;-61
2023/08/24 05:33:51;;;;;;;24.27;15.82;;;20.00;99.90;;;;;;5063087;28;20091;-61
2023/08/24 05:36:18;;;;;;;19.70;15.27;;;20.10;99.90;;;;;;5062949;28;20041;-62
2023/08/24 05:38:46;;;;;;;18.85;14.65;;;20.10;99.90;;;;;;5066349;28;20051;-60
2023/08/24 05:41:31;;;;;;;21.92;14.98;;;20.10;99.90;;;;;;5055578;28;20046;-60
2023/08/24 05:43:58;;;;;;;19.38;14.70;;;20.20;99.90;;;;;;5041870;28;20486;-61
2023/08/24 05:46:25;;;;;;;28.65;15.25;;;20.20;99.90;;;;;;5030227;28;20048;-62
2023/08/24 05:48:52;;;;;;;25.13;15.80;;;20.20;99.90;;;;;;5061327;28;20036;-62
2023/08/24 05:51:19;;;;;;;19.20;15.55;;;20.30;99.90;;;;;;5033227;28;20033;-62
2023/08/24 05:53:45;;;;;;;21.83;15.85;;;20.30;99.90;;;;;;5063216;28;20067;-62
2023/08/24 05:56:12;;;;;;;26.25;15.90;;;20.30;99.90;;;;;;5071059;28;20036;-61
2023/08/24 05:58:39;;;;;;;20.10;14.93;;;20.40;99.90;;;;;;5061497;28;20045;-61
2023/08/24 06:01:05;;;;;;;23.95;15.80;;;20.40;99.90;;;;;;5063080;28;20040;-61
2023/08/24 06:03:33;;;;;;;23.67;16.30;;;20.50;99.90;;;;;;5054550;28;20045;-61
2023/08/24 06:06:04;;;;;;;23.55;16.15;;;20.50;99.90;;;;;;5071092;28;20408;-62
2023/08/24 06:08:31;;;;;;;20.13;15.48;;;20.60;99.90;;;;;;5070347;28;20080;-61
2023/08/24 06:10:58;;;;;;;21.50;15.60;;;20.60;99.90;;;;;;5053721;28;20040;-60
2023/08/24 06:13:25;;;;;;;20.27;16.40;;;20.70;99.90;;;;;;5071130;28;20043;-60
2023/08/24 06:15:54;;;;;;;22.50;15.38;;;20.70;99.90;;;;;;5061219;28;20033;-61
2023/08/24 06:18:21;;;;;;;26.63;15.50;;;20.80;99.90;;;;;;5056862;28;20116;-59
2023/08/24 06:20:51;;;;;;;22.42;15.93;;;20.80;99.90;;;;;;5071012;28;20066;-61
2023/08/24 06:23:18;;;;;;;18.83;14.70;;;20.90;99.90;;;;;;5051842;28;20409;-61
2023/08/24 06:25:45;;;;;;;;;;;21.00;99.90;;;;;;5054626;28;20049;-60
2023/08/24 06:28:12;;;;;;;23.25;16.10;;;21.10;99.90;;;;;;5058998;28;19930;-59
2023/08/24 06:30:40;;;;;;;18.42;15.48;;;21.20;99.90;;;;;;5060520;28;20041;-62
2023/08/24 06:33:07;;;;;;;25.15;15.07;;;21.20;99.90;;;;;;5049613;28;20034;-62
2023/08/24 06:35:34;;;;;;;22.02;13.95;;;21.40;99.90;;;;;;5067087;28;20029;-61
2023/08/24 06:38:02;;;;;;;23.45;15.35;;;21.40;99.90;;;;;;5053711;28;20051;-64
2023/08/24 06:40:30;;;;;;;22.77;15.27;;;21.50;99.90;;;;;;5066646;28;20079;-62
2023/08/24 06:42:57;;;;;;;20.73;13.10;;;21.60;99.90;;;;;;5055121;28;20040;-62
2023/08/24 06:45:24;;;;;;;;;;;21.80;99.90;;;;;;5071010;28;20370;-61
2023/08/24 06:47:51;;;;;;;21.73;14.50;;;21.90;99.90;;;;;;5060946;28;19943;-62
2023/08/24 06:50:21;;;;;;;20.70;14.02;;;21.90;99.90;;;;;;5059827;28;20412;-62
2023/08/24 06:52:48;;;;;;;18.33;14.02;;;21.90;99.90;;;;;;5051375;28;20099;-61
2023/08/24 06:55:15;;;;;;;20.60;13.00;;;22.00;99.90;;;;;;5061710;28;20124;-64
2023/08/24 07:01:31;;;;;;;18.88;13.63;;;22.20;99.90;;;;;;5046847;28;20504;-64
2023/08/24 07:03:58;;;;;;;26.38;14.73;;;22.20;99.90;;;;;;5050476;28;20071;-64
2023/08/24 07:06:25;;;;;;;20.20;13.88;;;22.40;99.90;;;;;;5054950;28;20532;-64
2023/08/24 07:08:52;;;;;;;21.02;13.93;;;22.50;99.90;;;;;;5067772;28;20048;-63
2023/08/24 07:11:20;;;;;;;19.52;14.35;;;22.40;99.90;;;;;;5036888;28;20045;-65
2023/08/24 07:13:48;;;;;;;20.00;13.32;;;22.50;99.90;;;;;;5064750;28;20508;-62
2023/08/24 07:16:15;;;;;;;20.00;12.55;;;22.70;99.90;;;;;;5067874;28;20060;-62
2023/08/24 07:18:41;;;;;;;17.27;13.52;;;22.90;99.90;;;;;;5060977;28;20052;-62
2023/08/24 07:21:08;;;;;;;17.65;12.80;;;23.00;99.90;;;;;;5066140;28;20397;-61
2023/08/24 07:23:35;;;;;;;19.33;14.27;;;23.00;99.90;;;;;;5056524;28;20040;-61
2023/08/24 07:26:02;;;;;;;19.60;12.88;;;23.10;99.90;;;;;;5072871;28;20048;-60
2023/08/24 07:28:29;;;;;;;18.48;13.70;;;23.10;99.90;;;;;;5067244;28;20036;-62
2023/08/24 07:30:56;;;;;;;22.02;12.30;;;23.20;99.90;;;;;;5064612;28;20045;-62
2023/08/24 07:33:24;;;;;;;19.33;12.20;;;23.40;99.90;;;;;;5058484;28;20478;-62
2023/08/24 07:35:51;;;;;;;20.80;12.40;;;23.40;99.90;;;;;;5051796;28;20120;-62
2023/08/24 07:38:18;;;;;;;16.45;12.57;;;23.50;99.90;;;;;;5059574;28;20052;-62
2023/08/24 07:40:44;;;;;;;19.33;12.88;;;23.60;99.90;;;;;;5058322;28;20060;-62
2023/08/24 07:43:11;;;;;;;19.10;12.85;;;23.50;99.90;;;;;;5073067;28;20039;-62
2023/08/24 07:45:38;;;;;;;16.90;12.40;;;23.60;99.90;;;;;;5068671;28;20493;-62
2023/08/24 07:48:07;;;;;;;13.70;11.63;;;23.70;99.90;;;;;;5059800;28;20047;-61
2023/08/24 07:50:34;;;;;;;15.88;12.10;;;23.90;99.90;;;;;;5064667;28;20410;-61
2023/08/24 07:53:00;;;;;;;17.80;12.02;;;24.10;99.90;;;;;;5058156;28;20086;-61
2023/08/24 07:55:27;;;;;;;16.85;12.02;;;24.10;99.90;;;;;;5043318;28;20053;-62
2023/08/24 07:57:54;;;;;;;18.83;12.13;;;24.20;99.90;;;;;;5044447;28;20056;-62
2023/08/24 08:00:21;;;;;;;15.75;11.95;;;24.20;99.90;;;;;;5049865;28;20033;-61
2023/08/24 08:02:51;;;;;;;14.20;11.68;;;24.20;99.90;;;;;;5052074;28;20045;-62
2023/08/24 08:05:18;;;;;;;21.20;12.50;;;24.30;99.90;;;;;;5049283;28;20043;-62
2023/08/24 08:07:45;;;;;;;;;;;24.40;99.90;;;;;;5045058;28;20368;-62
2023/08/24 08:10:11;;;;;;;15.32;10.57;;;24.60;99.90;;;;;;5057814;28;19920;-62
2023/08/24 08:12:38;;;;;;;17.52;11.52;;;24.70;99.90;;;;;;5068368;28;20032;-62
2023/08/24 08:15:05;;;;;;;19.65;11.25;;;24.90;99.90;;;;;;5058967;28;20040;-62
2023/08/24 08:17:33;;;;;;;15.48;11.18;;;25.00;99.90;;;;;;5052069;28;20041;-64
2023/08/24 08:20:00;;;;;;;14.18;10.63;;;25.10;99.90;;;;;;5049374;28;20120;-62
2023/08/24 08:22:27;;;;;;;19.50;11.13;;;25.30;99.90;;;;;;5045989;28;20487;-62
2023/08/24 08:24:54;;;;;;;16.00;10.85;;;25.30;99.90;;;;;;5049616;28;20045;-62
2023/08/24 08:27:21;;;;;;;18.15;11.32;;;25.50;99.90;;;;;;5051717;28;20118;-62
2023/08/24 08:29:50;;;;;;;12.75;10.15;;;25.70;99.90;;;;;;5054826;28;20036;-63
2023/08/24 08:32:17;;;;;;;14.18;11.35;;;25.80;99.90;;;;;;5071960;28;20123;-63
2023/08/24 08:34:43;;;;;;;14.48;10.55;;;25.80;99.90;;;;;;5071747;28;20056;-62
2023/08/24 08:37:10;;;;;;;18.63;11.07;;;26.00;99.90;;;;;;5050082;28;20040;-62
2023/08/24 08:39:37;;;;;;;;;;;26.10;99.90;;;;;;5045370;28;20034;-62
2023/08/24 08:42:04;;;;;;;15.13;10.32;;;26.20;99.90;;;;;;5048273;28;19928;-63
2023/08/24 08:44:31;;;;;;;15.35;10.77;;;26.40;99.90;;;;;;5048371;28;20486;-61
2023/08/24 08:46:58;;;;;;;16.55;10.23;;;26.40;99.90;;;;;;5040998;28;20049;-62
2023/08/24 08:49:25;;;;;;;17.65;11.07;;;26.60;99.90;;;;;;5051764;28;20122;-62
2023/08/24 08:51:52;;;;;;;;;;;26.60;99.90;;;;;;5051150;28;20047;-62
2023/08/24 08:54:19;;;;;;;16.73;10.27;;;26.70;99.90;;;;;;5052398;28;20416;-62
2023/08/24 08:56:46;;;;;;;14.80;10.65;;;26.80;99.90;;;;;;5070357;28;20044;-62
2023/08/24 08:59:15;;;;;;;17.90;10.85;;;27.00;99.90;;;;;;5050760;28;20052;-62
2023/08/24 09:01:43;;;;;;;16.25;10.50;;;27.20;99.90;;;;;;5054365;28;20051;-62
2023/08/24 09:04:11;;;;;;;15.65;10.55;;;27.20;99.90;;;;;;5050974;28;20037;-61
2023/08/24 09:06:38;;;;;;;18.30;10.20;;;27.20;99.90;;;;;;5057739;28;20048;-63
2023/08/24 09:09:05;;;;;;;14.48;8.98;;;27.20;99.90;;;;;;5068955;28;20052;-62
2023/08/24 09:11:33;;;;;;;15.85;9.30;;;27.30;99.90;;;;;;5051892;28;20040;-63
2023/08/24 09:14:00;;;;;;;16.45;10.20;;;27.40;99.90;;;;;;5071100;28;20127;-62
2023/08/24 09:16:29;;;;;;;13.18;9.82;;;27.50;99.90;;;;;;5070625;28;20040;-63
2023/08/24 09:18:57;;;;;;;14.13;10.02;;;27.50;99.90;;;;;;5061721;28;20090;-63
2023/08/24 09:21:25;;;;;;;15.13;10.20;;;27.70;99.90;;;;;;5057316;28;20041;-62
2023/08/24 09:23:55;;;;;;;12.43;9.10;;;27.90;99.90;;;;;;5062520;28;20808;-62
2023/08/24 09:26:33;;;;;;;19.58;10.57;;;28.00;99.90;;;;;;5054800;28;20069;-62
2023/08/24 09:29:12;;;;;;;20.92;9.90;;;28.00;99.90;;;;;;5049050;28;20037;-63
2023/08/24 09:31:40;;;;;;;16.52;9.60;;;28.10;99.90;;;;;;5056898;28;20147;-61
2023/08/24 09:34:07;;;;;;;17.30;9.55;;;28.10;99.90;;;;;;5047723;28;20067;-62
2023/08/24 09:36:34;;;;;;;16.55;9.93;;;28.20;99.90;;;;;;5056742;28;20449;-62
2023/08/24 09:39:06;;;;;;;15.15;10.23;;;28.40;99.90;;;;;;5068278;28;20404;-63
2023/08/24 09:41:50;;;;;;;15.82;9.80;;;28.60;99.90;;;;;;5052910;28;20107;-62
2023/08/24 09:44:18;;;;;;;18.63;9.43;;;28.60;99.90;;;;;;5042185;28;20037;-63
2023/08/24 09:46:44;;;;;;;19.85;9.70;;;28.60;99.90;;;;;;5058006;28;20067;-63
2023/08/24 09:49:12;;;;;;;14.68;9.50;;;28.60;99.90;;;;;;5062289;28;20412;-63
2023/08/24 09:51:41;;;;;;;14.73;9.15;;;28.70;99.90;;;;;;5064976;28;20480;-63
2023/08/24 09:54:09;;;;;;;13.98;9.85;;;28.80;99.90;;;;;;5053904;28;20045;-62
2023/08/24 09:56:41;;;;;;;17.25;9.75;;;28.80;99.90;;;;;;5049612;28;20440;-63
2023/08/24 09:59:13;;;;;;;12.55;9.40;;;29.00;99.90;;;;;;5059921;28;20045;-63
2023/08/24 10:01:47;;;;;;;16.15;9.23;;;29.20;99.90;;;;;;5058418;28;20045;-62
2023/08/24 10:04:22;;;;;;;14.75;9.35;;;29.30;99.90;;;;;;5070494;28;20068;-63
2023/08/24 10:06:55;;;;;;;21.15;10.73;;;29.40;99.90;;;;;;5059419;28;20397;-61
2023/08/24 10:09:31;;;;;;;14.18;10.23;;;29.30;99.90;;;;;;5070774;28;20043;-63
2023/08/24 10:12:01;;;;;;;20.80;10.45;;;29.30;99.90;;;;;;5061432;28;20041;-62
2023/08/24 10:14:36;;;;;;;14.35;9.05;;;29.30;99.90;;;;;;5070703;28;20036;-61
2023/08/24 10:17:04;;;;;;;19.30;10.05;;;29.40;99.90;;;;;;5057552;28;20049;-61
2023/08/24 10:19:31;;;;;;;19.25;9.18;;;29.60;99.90;;;;;;5066099;28;20047;-62
2023/08/24 10:22:00;;;;;;;18.67;9.15;;;29.70;99.90;;;;;;5065231;28;20048;-62
2023/08/24 10:24:28;;;;;;;14.05;9.38;;;29.60;99.90;;;;;;5057510;28;20036;-63
2023/08/24 10:26:56;;;;;;;15.77;9.15;;;29.60;99.90;;;;;;5059409;28;20128;-63
2023/08/24 10:29:25;;;;;;;16.35;9.55;;;29.80;99.90;;;;;;5043535;28;20048;-63
2023/08/24 10:31:52;;;;;;;16.58;9.55;;;30.00;99.90;;;;;;5054244;28;20037;-63
2023/08/24 10:34:19;;;;;;;15.05;9.18;;;30.00;99.90;;;;;;5073665;28;20045;-63
2023/08/24 10:36:48;;;;;;;14.95;9.85;;;29.90;99.90;;;;;;5073850;28;20266;-63
2023/08/24 10:39:15;;;;;;;16.63;9.45;;;29.90;99.90;;;;;;5062288;28;20045;-63
2023/08/24 10:41:49;;;;;;;12.40;9.52;;;30.00;99.90;;;;;;5074153;28;20055;-63
2023/08/24 10:44:25;;;;;;;18.92;9.88;;;30.10;99.90;;;;;;5062764;28;20075;-63
2023/08/24 10:47:14;;;;;;;16.60;10.65;;;30.20;99.90;;;;;;5056043;28;20046;-63
2023/08/24 10:49:56;;;;;;;17.73;9.98;;;30.20;99.90;;;;;;5048547;28;20124;-63
2023/08/24 10:52:37;;;;;;;14.23;9.63;;;30.10;99.90;;;;;;5046899;28;20072;-63
2023/08/24 10:55:21;;;;;;;13.30;8.93;;;29.80;99.90;;;;;;5073682;28;20480;-62
2023/08/24 10:57:56;;;;;;;13.77;9.35;;;29.80;99.90;;;;;;5072626;28;20076;-63
2023/08/24 11:00:26;;;;;;;16.00;10.00;;;30.00;99.90;;;;;;5053047;28;20481;-63
2023/08/24 11:02:54;;;;;;;18.30;9.65;;;30.10;99.90;;;;;;5049819;28;20053;-61
2023/08/24 11:05:35;;;;;;;17.92;9.63;;;30.30;99.90;;;;;;5065724;28;20052;-62
2023/08/24 11:08:06;;;;;;;19.77;10.25;;;30.30;99.90;;;;;;5067315;28;20038;-63
2023/08/24 11:10:41;;;;;;;15.90;10.13;;;30.30;99.90;;;;;;5059170;28;20271;-63
2023/08/24 11:13:13;;;;;;;14.80;9.45;;;30.30;99.90;;;;;;5062755;28;20128;-63
2023/08/24 11:15:43;;;;;;;16.13;10.07;;;30.30;99.90;;;;;;5067501;28;20036;-62
2023/08/24 11:18:24;;;;;;;21.98;9.77;;;30.20;99.90;;;;;;5052274;28;20380;-63
2023/08/24 11:20:55;;;;;;;18.20;9.63;;;30.30;99.90;;;;;;5053545;28;20068;-63
2023/08/24 11:23:24;;;;;;;16.95;9.50;;;30.30;99.90;;;;;;5072503;28;20051;-61
2023/08/24 11:25:56;;;;;;;19.75;9.98;;;30.30;99.90;;;;;;5056742;28;20052;-63
2023/08/24 11:28:24;;;;;;;17.35;9.27;;;30.40;99.90;;;;;;5056682;28;20044;-62
2023/08/24 11:30:52;;;;;;;16.05;9.73;;;30.40;99.90;;;;;;5073293;28;20401;-63
2023/08/24 11:33:33;;;;;;;31.58;9.88;;;30.50;99.90;;;;;;5040432;28;20095;-61
2023/08/24 11:36:02;;;;;;;15.77;9.57;;;30.70;99.90;;;;;;5068738;28;20493;-63
2023/08/24 11:38:40;;;;;;;15.40;8.98;;;31.00;99.90;;;;;;5066940;28;20041;-63
2023/08/24 11:41:18;;;;;;;18.55;9.30;;;31.10;99.90;;;;;;5038587;28;20052;-63
2023/08/24 11:43:47;;;;;;;15.82;10.10;;;31.10;99.90;;;;;;5073186;28;20473;-63
2023/08/24 11:46:18;;;;;;;26.52;9.57;;;31.30;99.90;;;;;;5064009;28;20048;-63
2023/08/24 11:48:46;;;;;;;15.63;8.77;;;31.30;99.90;;;;;;5062662;28;20046;-63
2023/08/24 11:51:13;;;;;;;11.43;8.90;;;31.40;99.90;;;;;;5059126;28;20047;-63
2023/08/24 11:53:46;;;;;;;15.98;9.05;;;31.40;99.90;;;;;;5055609;28;20124;-63
2023/08/24 11:56:14;;;;;;;14.95;8.85;;;31.40;99.90;;;;;;5068295;28;20036;-62
2023/08/24 11:58:41;;;;;;;16.40;9.75;;;31.40;99.90;;;;;;5064297;28;20446;-63
2023/08/24 12:01:10;;;;;;;18.17;9.70;;;31.40;99.90;;;;;;5053572;28;20049;-63
2023/08/24 12:03:38;;;;;;;17.77;9.55;;;31.40;99.90;;;;;;5051060;28;20409;-63
2023/08/24 12:06:16;;;;;;;12.15;8.95;;;31.50;99.90;;;;;;5052017;28;20045;-63
2023/08/24 12:08:46;;;;;;;17.42;8.35;;;31.50;99.90;;;;;;5050089;28;20040;-63
2023/08/24 12:11:20;;;;;;;13.52;9.13;;;31.60;99.90;;;;;;5071373;28;20036;-61
2023/08/24 12:13:52;;;;;;;14.35;8.50;;;31.70;99.90;;;;;;5059658;28;20108;-63
2023/08/24 12:16:20;;;;;;;19.92;9.50;;;31.80;99.90;;;;;;5057504;28;20072;-63
2023/08/24 12:18:53;;;;;;;14.32;9.43;;;31.90;99.90;;;;;;5060540;28;20405;-63
2023/08/24 12:21:21;;;;;;;12.73;8.98;;;32.00;99.90;;;;;;5063749;28;20043;-63
2023/08/24 12:24:05;;;;;;;16.20;8.88;;;32.00;99.90;;;;;;5072179;28;20498;-63
2023/08/24 12:26:33;;;;;;;15.27;8.93;;;32.10;99.90;;;;;;5046462;28;20048;-63
2023/08/24 12:29:09;;;;;;;11.60;8.52;;;32.10;99.90;;;;;;5072249;28;20139;-63
2023/08/24 12:31:36;;;;;;;14.57;8.00;;;32.10;99.90;;;;;;5067877;28;20494;-63
2023/08/24 12:34:10;;;;;;;14.13;7.82;;;32.00;99.90;;;;;;5052457;28;20037;-63
2023/08/24 12:36:39;;;;;;;17.98;8.48;;;32.00;99.90;;;;;;5057224;28;20039;-63
2023/08/24 12:39:07;;;;;;;12.10;8.07;;;32.00;99.90;;;;;;5071141;28;20045;-63
2023/08/24 12:41:34;;;;;;;19.25;9.13;;;32.00;99.90;;;;;;5045876;28;20033;-63
2023/08/24 12:44:04;;;;;;;15.18;8.57;;;32.00;99.90;;;;;;5058813;28;20405;-63